Time;durP1;ratioP1;P1;durP2;ratioP2;P2;SDS_P1;SDS_P2;PMS_P1;PMS_P2;Temp;Humidity;BMP_temperature;BMP_pressure;BME280_temperature;BME280_humidity;BME280_pressure;Samples;Min_cycle;Max_cycle;Signal;HPM_P1;HPM_P2
2021/07/30 00:00:22;;;;;;;9.47;4.57;;;14.40;99.90;;;;;;5072823;28;20232;-63
2021/07/30 00:02:49;;;;;;;7.57;4.03;;;14.40;99.90;;;;;;5072488;28;20208;-64
2021/07/30 00:05:16;;;;;;;8.20;4.60;;;14.40;99.90;;;;;;5072687;28;20213;-64
2021/07/30 00:07:44;;;;;;;15.67;4.40;;;14.40;99.90;;;;;;5072861;28;20200;-64
2021/07/30 00:10:11;;;;;;;8.07;4.80;;;14.30;99.90;;;;;;5072539;28;20597;-64
2021/07/30 00:12:38;;;;;;;10.53;4.73;;;14.30;99.90;;;;;;5072561;28;20265;-64
2021/07/30 00:15:06;;;;;;;10.50;5.00;;;14.30;99.90;;;;;;5072461;28;20253;-63
2021/07/30 00:17:33;;;;;;;8.00;4.50;;;14.30;1.00;;;;;;5072482;28;20231;-64
2021/07/30 00:20:00;;;;;;;9.27;4.50;;;14.30;99.90;;;;;;5072773;28;20642;-64
2021/07/30 00:22:27;;;;;;;7.20;4.20;;;14.30;99.90;;;;;;5072641;28;20257;-64
2021/07/30 00:24:55;;;;;;;9.63;4.67;;;14.30;99.90;;;;;;5072560;28;20613;-63
2021/07/30 00:27:21;;;;;;;11.27;4.37;;;14.30;99.90;;;;;;5072291;28;20257;-64
2021/07/30 00:29:48;;;;;;;11.70;4.83;;;14.30;99.90;;;;;;5072407;28;20224;-64
2021/07/30 00:32:15;;;;;;;10.07;4.80;;;14.30;99.90;;;;;;5072087;28;20223;-63
2021/07/30 00:34:41;;;;;;;7.70;4.27;;;14.30;99.90;;;;;;5072339;28;20205;-64
2021/07/30 00:37:08;;;;;;;8.20;4.80;;;14.30;99.90;;;;;;5072364;28;20635;-64
2021/07/30 00:39:34;;;;;;;10.43;4.57;;;14.40;99.90;;;;;;5072281;28;20220;-64
2021/07/30 00:42:02;;;;;;;10.80;4.17;;;14.40;99.90;;;;;;5072230;28;20209;-63
2021/07/30 00:44:29;;;;;;;9.57;4.03;;;14.50;1.00;;;;;;5071722;28;20209;-64
2021/07/30 00:46:57;;;;;;;10.30;4.47;;;14.50;99.90;;;;;;5072336;28;20208;-64
2021/07/30 00:49:24;;;;;;;8.87;4.80;;;14.50;99.90;;;;;;5071835;28;20701;-64
2021/07/30 00:51:51;;;;;;;8.83;4.43;;;14.60;99.90;;;;;;5072235;28;20201;-63
2021/07/30 00:54:17;;;;;;;9.30;4.37;;;14.60;99.90;;;;;;5071806;28;20262;-64
2021/07/30 00:56:44;;;;;;;6.17;4.23;;;14.60;99.90;;;;;;5071868;28;20213;-64
2021/07/30 00:59:13;;;;;;;6.77;3.90;;;14.60;99.90;;;;;;5071909;28;20228;-64
2021/07/30 01:01:40;;;;;;;9.07;4.67;;;14.60;99.90;;;;;;5072162;28;20274;-64
2021/07/30 01:04:07;;;;;;;8.10;4.50;;;14.70;99.90;;;;;;5071965;28;20571;-64
2021/07/30 01:06:33;;;;;;;10.13;4.53;;;14.70;99.90;;;;;;5072003;28;20207;-64
2021/07/30 01:09:01;;;;;;;10.03;4.30;;;14.70;99.90;;;;;;5071900;28;20282;-63
2021/07/30 01:11:28;;;;;;;12.17;4.77;;;14.80;99.90;;;;;;5072107;28;20231;-64
2021/07/30 01:13:54;;;;;;;11.20;4.40;;;14.80;99.90;;;;;;5074203;28;20750;-64
2021/07/30 01:16:22;;;;;;;9.13;4.10;;;14.90;99.90;;;;;;5076631;28;20206;-64
2021/07/30 01:18:49;;;;;;;10.57;4.10;;;14.90;99.90;;;;;;5077107;28;20298;-64
2021/07/30 01:21:19;;;;;;;7.13;4.43;;;14.90;99.90;;;;;;5076999;28;20234;-64
2021/07/30 01:23:48;;;;;;;8.53;4.13;;;15.00;99.90;;;;;;5076048;28;20216;-63
2021/07/30 01:26:15;;;;;;;8.03;4.30;;;15.00;99.90;;;;;;5076063;28;20251;-64
2021/07/30 01:28:42;;;;;;;9.20;4.57;;;15.00;99.90;;;;;;5076794;28;20229;-64
2021/07/30 01:31:09;;;;;;;9.33;4.33;;;15.00;99.90;;;;;;5076054;28;20216;-64
2021/07/30 01:33:35;;;;;;;8.53;4.80;;;15.00;99.90;;;;;;5075512;28;20227;-64
2021/07/30 01:36:02;;;;;;;9.67;4.20;;;15.00;99.90;;;;;;5075615;28;20731;-64
2021/07/30 01:38:28;;;;;;;7.67;4.30;;;15.00;99.90;;;;;;5075297;28;20270;-64
2021/07/30 01:41:08;;;;;;;8.00;3.93;;;15.10;99.90;;;;;;5075770;28;20270;-64
2021/07/30 01:43:35;;;;;;;11.97;3.93;;;15.10;99.90;;;;;;5075521;28;20700;-64
2021/07/30 01:46:02;;;;;;;8.73;4.10;;;15.10;99.90;;;;;;5075564;28;20211;-64
2021/07/30 01:48:29;;;;;;;7.67;3.93;;;15.10;99.90;;;;;;5075248;28;20225;-64
2021/07/30 01:50:56;;;;;;;10.23;4.30;;;15.20;99.90;;;;;;5075289;28;20201;-64
2021/07/30 01:53:22;;;;;;;5.20;3.60;;;15.10;99.90;;;;;;5075278;28;20230;-64
2021/07/30 01:55:49;;;;;;;6.73;4.20;;;15.20;99.90;;;;;;5075322;28;20209;-64
2021/07/30 01:58:17;;;;;;;11.23;4.47;;;15.20;99.90;;;;;;5075249;28;20225;-64
2021/07/30 02:00:44;;;;;;;9.63;4.20;;;15.20;99.90;;;;;;5075219;28;20208;-64
2021/07/30 02:03:10;;;;;;;11.77;4.33;;;15.20;99.90;;;;;;5075364;28;20209;-63
2021/07/30 02:05:38;;;;;;;8.10;4.67;;;15.20;99.90;;;;;;5074749;28;20334;-64
2021/07/30 02:08:05;;;;;;;9.10;4.70;;;15.20;99.90;;;;;;5075161;28;20205;-64
2021/07/30 02:10:31;;;;;;;11.00;4.33;;;15.20;99.90;;;;;;5075076;28;20642;-64
2021/07/30 02:15:43;;;;;;;12.83;5.10;;;15.30;99.90;;;;;;5074915;28;20204;-64
2021/07/30 02:18:10;;;;;;;10.63;4.57;;;15.30;99.90;;;;;;5074544;28;20224;-64
2021/07/30 02:20:38;;;;;;;10.70;4.20;;;15.30;99.90;;;;;;5074733;28;20603;-64
2021/07/30 02:23:05;;;;;;;8.80;4.17;;;15.30;99.90;;;;;;5074888;28;20254;-64
2021/07/30 02:25:31;;;;;;;7.40;4.30;;;15.30;99.90;;;;;;5074621;28;20216;-64
2021/07/30 02:27:58;;;;;;;8.70;4.23;;;15.20;99.90;;;;;;5074699;28;20209;-64
2021/07/30 02:30:24;;;;;;;10.90;4.33;;;15.30;99.90;;;;;;5074448;28;20650;-64
2021/07/30 02:32:52;;;;;;;9.23;4.80;;;15.30;99.90;;;;;;5074348;28;20251;-64
2021/07/30 02:35:19;;;;;;;7.93;4.67;;;15.30;99.90;;;;;;5074646;28;20274;-64
2021/07/30 02:37:46;;;;;;;16.40;4.60;;;15.30;99.90;;;;;;5074540;28;20282;-63
2021/07/30 02:40:14;;;;;;;8.30;4.20;;;15.30;99.90;;;;;;5074475;28;20282;-64
2021/07/30 02:42:40;;;;;;;8.07;4.40;;;15.30;99.90;;;;;;5074268;28;20627;-63
2021/07/30 02:45:08;;;;;;;8.77;4.33;;;15.30;99.90;;;;;;5074252;28;20258;-64
2021/07/30 02:47:35;;;;;;;9.77;4.30;;;15.30;99.90;;;;;;5074368;28;20201;-63
2021/07/30 02:50:04;;;;;;;8.57;4.00;;;15.30;99.90;;;;;;5074326;28;20271;-63
2021/07/30 02:52:31;;;;;;;9.70;4.43;;;15.30;99.90;;;;;;5074537;28;20204;-64
2021/07/30 02:54:57;;;;;;;9.47;4.40;;;15.20;99.90;;;;;;5074119;28;20209;-64
2021/07/30 02:57:24;;;;;;;8.57;4.23;;;15.20;99.90;;;;;;5074070;28;20284;-63
2021/07/30 02:59:50;;;;;;;10.10;4.30;;;15.20;1.00;;;;;;5073698;28;20774;-64
2021/07/30 03:02:17;;;;;;;11.10;5.17;;;15.20;99.90;;;;;;5074342;28;20259;-64
2021/07/30 03:04:44;;;;;;;11.10;4.53;;;15.20;99.90;;;;;;5073992;28;20204;-64
2021/07/30 03:07:12;;;;;;;8.10;4.23;;;15.20;99.90;;;;;;5073902;28;20666;-64
2021/07/30 03:09:39;;;;;;;9.83;4.33;;;15.20;99.90;;;;;;5073792;28;20228;-63
2021/07/30 03:12:06;;;;;;;9.60;4.40;;;15.10;99.90;;;;;;5073782;28;20205;-64
2021/07/30 03:14:33;;;;;;;12.20;4.13;;;15.10;99.90;;;;;;5073482;28;20258;-64
2021/07/30 03:17:00;;;;;;;9.23;4.40;;;15.00;99.90;;;;;;5073991;28;20205;-64
2021/07/30 03:19:26;;;;;;;8.27;4.43;;;15.00;99.90;;;;;;5073760;28;20229;-63
2021/07/30 03:21:53;;;;;;;12.10;4.87;;;15.00;99.90;;;;;;5073558;28;20645;-64
2021/07/30 03:24:21;;;;;;;15.03;4.83;;;14.90;99.90;;;;;;5073727;28;20212;-64
2021/07/30 03:26:47;;;;;;;9.43;4.70;;;14.90;99.90;;;;;;5073442;28;20673;-63
2021/07/30 03:29:14;;;;;;;8.47;3.90;;;14.80;99.90;;;;;;5073578;28;20220;-64
2021/07/30 03:31:40;;;;;;;10.63;4.90;;;14.90;1.00;;;;;;5073320;28;20209;-64
2021/07/30 03:34:07;;;;;;;10.00;5.03;;;14.80;1.00;;;;;;5073347;28;20205;-64
2021/07/30 03:36:34;;;;;;;7.20;4.87;;;14.80;1.00;;;;;;5072775;28;20205;-64
2021/07/30 03:39:01;;;;;;;9.43;5.20;;;14.80;1.00;;;;;;5073294;28;20229;-64
2021/07/30 03:41:29;;;;;;;12.27;5.17;;;14.70;1.00;;;;;;5073051;28;20212;-64
2021/07/30 03:43:55;;;;;;;15.13;5.87;;;14.70;1.00;;;;;;5072957;28;20258;-64
2021/07/30 03:46:22;;;;;;;6.67;4.60;;;14.70;1.00;;;;;;5073332;28;20205;-64
2021/07/30 03:48:49;;;;;;;11.90;5.30;;;14.60;1.00;;;;;;5073168;28;20225;-64
2021/07/30 03:51:15;;;;;;;11.17;5.37;;;14.60;1.00;;;;;;5073033;28;20235;-64
2021/07/30 03:53:42;;;;;;;12.37;5.07;;;14.60;1.00;;;;;;5073069;28;20573;-64
2021/07/30 03:56:15;;;;;;;11.47;5.00;;;14.50;1.00;;;;;;5072832;28;20208;-64
2021/07/30 03:58:45;;;;;;;14.93;5.27;;;14.50;1.00;;;;;;5072595;28;20728;-64
2021/07/30 04:01:12;;;;;;;10.27;5.23;;;14.40;1.00;;;;;;5073125;28;20212;-64
2021/07/30 04:03:39;;;;;;;9.00;5.10;;;14.40;1.00;;;;;;5072738;28;20208;-64
2021/07/30 04:06:06;;;;;;;7.70;5.30;;;14.40;1.00;;;;;;5073130;28;20208;-64
2021/07/30 04:08:34;;;;;;;8.23;5.00;;;14.40;1.00;;;;;;5072963;28;20229;-64
2021/07/30 04:11:01;;;;;;;8.47;5.40;;;14.40;1.00;;;;;;5072866;28;20208;-64
2021/07/30 04:13:28;;;;;;;12.10;5.00;;;14.40;1.00;;;;;;5072727;28;20205;-64
2021/07/30 04:16:00;;;;;;;13.10;5.60;;;14.40;1.00;;;;;;5072323;28;20669;-64
2021/07/30 04:18:27;;;;;;;10.80;5.43;;;14.40;1.00;;;;;;5052003;28;20225;-64
2021/07/30 04:20:54;;;;;;;10.77;4.93;;;14.40;1.00;;;;;;5052401;28;20247;-64
2021/07/30 04:23:20;;;;;;;9.77;5.47;;;14.40;1.00;;;;;;5054776;28;20253;-64
2021/07/30 04:25:47;;;;;;;10.63;5.67;;;14.40;1.00;;;;;;5071725;28;20207;-64
2021/07/30 04:28:13;;;;;;;12.00;5.10;;;14.40;1.00;;;;;;5058422;28;20248;-65
2021/07/30 04:30:40;;;;;;;12.47;5.37;;;14.40;1.00;;;;;;5057366;28;20209;-64
2021/07/30 04:33:09;;;;;;;8.90;5.10;;;14.40;1.00;;;;;;5072080;28;20208;-64
2021/07/30 04:35:37;;;;;;;10.70;5.63;;;14.40;1.00;;;;;;5071963;28;20205;-64
2021/07/30 04:38:04;;;;;;;9.57;5.53;;;14.40;1.00;;;;;;5072359;28;20301;-64
2021/07/30 04:40:30;;;;;;;8.33;5.50;;;14.40;1.00;;;;;;5072104;28;20547;-64
2021/07/30 04:42:57;;;;;;;8.77;4.70;;;14.50;1.00;;;;;;5064025;28;20669;-62
2021/07/30 04:45:25;;;;;;;10.60;5.20;;;14.50;1.00;;;;;;5072056;28;20216;-63
2021/07/30 04:47:51;;;;;;;10.70;5.00;;;14.50;1.00;;;;;;5071310;28;20250;-62
2021/07/30 04:50:20;;;;;;;12.80;5.50;;;14.50;1.00;;;;;;5071631;28;20277;-63
2021/07/30 04:52:46;;;;;;;11.47;5.20;;;14.60;1.00;;;;;;5067728;28;20212;-63
2021/07/30 04:55:13;;;;;;;12.20;4.87;;;14.60;1.00;;;;;;5071900;28;20258;-62
2021/07/30 04:57:39;;;;;;;10.30;5.20;;;14.70;1.00;;;;;;5071899;28;20208;-62
2021/07/30 05:00:07;;;;;;;7.27;4.43;;;14.70;1.00;;;;;;5071801;28;20232;-63
2021/07/30 05:02:34;;;;;;;7.53;4.67;;;14.80;1.00;;;;;;5071946;28;20208;-63
2021/07/30 05:05:00;;;;;;;8.87;4.63;;;14.80;1.00;;;;;;5071363;28;20262;-63
2021/07/30 05:07:28;;;;;;;8.83;4.60;;;14.80;1.00;;;;;;5072015;28;20258;-63
2021/07/30 05:09:55;;;;;;;7.60;4.37;;;14.80;1.00;;;;;;5071797;28;20642;-63
2021/07/30 05:12:21;;;;;;;7.67;4.30;;;14.80;1.00;;;;;;5071814;28;20216;-63
2021/07/30 05:14:48;;;;;;;8.07;4.40;;;14.90;1.00;;;;;;5071563;28;20258;-63
2021/07/30 05:17:15;;;;;;;10.13;4.87;;;14.90;1.00;;;;;;5071780;28;20207;-63
2021/07/30 05:19:42;;;;;;;13.83;4.73;;;14.80;1.00;;;;;;5071809;28;20243;-62
2021/07/30 05:22:08;;;;;;;8.20;4.77;;;14.80;1.00;;;;;;5072758;28;20205;-64
2021/07/30 05:24:38;;;;;;;7.80;4.17;;;14.80;1.00;;;;;;5060592;28;20263;-63
2021/07/30 05:27:06;;;;;;;8.07;4.70;;;14.90;1.00;;;;;;5062052;28;20209;-63
2021/07/30 05:29:32;;;;;;;7.30;4.80;;;15.00;1.00;;;;;;5072036;28;20225;-64
2021/07/30 05:31:59;;;;;;;10.07;4.03;;;15.10;1.00;;;;;;5071871;28;20688;-62
2021/07/30 05:34:26;;;;;;;8.03;4.40;;;15.20;1.00;;;;;;5070975;28;20292;-65
2021/07/30 05:36:53;;;;;;;4.87;3.80;;;15.30;1.00;;;;;;5070279;28;20204;-64
2021/07/30 05:39:19;;;;;;;9.50;4.53;;;15.40;1.00;;;;;;5070889;28;20324;-65
2021/07/30 05:41:47;;;;;;;7.57;4.47;;;15.50;1.00;;;;;;5070556;28;20224;-65
2021/07/30 05:44:14;;;;;;;6.17;3.63;;;15.50;1.00;;;;;;5070986;28;20208;-65
2021/07/30 05:46:41;;;;;;;6.93;4.40;;;15.60;1.00;;;;;;5070894;28;20298;-64
2021/07/30 05:49:07;;;;;;;6.77;3.90;;;15.70;1.00;;;;;;5071080;28;20272;-64
2021/07/30 05:51:35;;;;;;;9.87;4.20;;;15.80;1.00;;;;;;5071213;28;20209;-63
2021/07/30 05:54:01;;;;;;;6.10;3.57;;;15.80;1.00;;;;;;5070975;28;20205;-65
2021/07/30 05:56:28;;;;;;;4.47;3.87;;;15.80;1.00;;;;;;5070932;28;20575;-64
2021/07/30 05:58:57;;;;;;;6.93;3.80;;;15.90;1.00;;;;;;5071008;28;20235;-65
2021/07/30 06:01:24;;;;;;;7.57;3.87;;;15.90;1.00;;;;;;5074523;28;20575;-65
2021/07/30 06:03:51;;;;;;;6.43;3.90;;;15.90;1.00;;;;;;5074766;28;20245;-65
2021/07/30 06:06:18;;;;;;;5.37;3.70;;;15.90;1.00;;;;;;5074261;28;20205;-64
2021/07/30 06:08:45;;;;;;;6.30;3.73;;;15.90;1.00;;;;;;5074574;28;20287;-65
2021/07/30 06:11:12;;;;;;;11.03;4.37;;;15.90;1.00;;;;;;5074486;28;20677;-64
2021/07/30 06:13:39;;;;;;;7.17;3.87;;;15.90;1.00;;;;;;5074405;28;20226;-64
2021/07/30 06:16:10;;;;;;;7.03;3.93;;;15.90;1.00;;;;;;5074387;28;20669;-64
2021/07/30 06:18:37;;;;;;;8.10;4.00;;;15.90;1.00;;;;;;5074248;28;20609;-66
2021/07/30 06:21:05;;;;;;;7.70;3.77;;;16.00;1.00;;;;;;5074568;28;20209;-67
2021/07/30 06:23:31;;;;;;;7.23;3.80;;;16.20;1.00;;;;;;5074314;28;20291;-66
2021/07/30 06:25:58;;;;;;;6.97;3.37;;;16.30;1.00;;;;;;5073927;28;20204;-63
2021/07/30 06:28:25;;;;;;;5.97;3.57;;;16.30;1.00;;;;;;5073962;28;20209;-63
2021/07/30 06:30:51;;;;;;;6.83;3.37;;;16.50;1.00;;;;;;5074124;28;20266;-65
2021/07/30 06:33:22;;;;;;;8.63;3.37;;;16.50;1.00;;;;;;5074263;28;20251;-65
2021/07/30 06:35:49;;;;;;;5.17;3.30;;;16.60;1.00;;;;;;5073754;28;20205;-66
2021/07/30 06:38:16;;;;;;;6.93;3.00;;;16.70;1.00;;;;;;5073967;28;20299;-65
2021/07/30 06:40:46;;;;;;;4.83;3.10;;;16.90;1.00;;;;;;5073442;28;20208;-65
2021/07/30 06:43:12;;;;;;;5.03;3.30;;;17.10;1.00;;;;;;5073946;28;20205;-65
2021/07/30 06:45:39;;;;;;;6.50;2.97;;;17.20;1.00;;;;;;5073360;28;20669;-66
2021/07/30 06:48:06;;;;;;;6.20;3.30;;;17.30;1.00;;;;;;5073857;28;20739;-66
2021/07/30 06:50:34;;;;;;;5.37;2.93;;;17.50;1.00;;;;;;5073582;28;20657;-66
2021/07/30 06:53:01;;;;;;;6.27;2.90;;;17.60;99.90;;;;;;5073707;28;20204;-65
2021/07/30 06:55:27;;;;;;;4.53;2.70;;;17.70;99.90;;;;;;5073086;28;20209;-64
2021/07/30 06:57:54;;;;;;;7.00;2.80;;;17.70;99.90;;;;;;5073514;28;20205;-65
2021/07/30 07:00:21;;;;;;;6.43;3.00;;;17.70;99.90;;;;;;5073263;28;20236;-65
2021/07/30 07:02:47;;;;;;;6.40;3.07;;;17.70;99.90;;;;;;5073739;28;20209;-64
2021/07/30 07:05:16;;;;;;;4.90;2.50;;;17.80;99.90;;;;;;5073219;28;20730;-68
2021/07/30 07:07:44;;;;;;;6.33;2.83;;;18.00;99.90;;;;;;5073631;28;20205;-65
2021/07/30 07:10:12;;;;;;;4.17;2.50;;;18.10;99.90;;;;;;5073429;28;20715;-66
2021/07/30 07:12:38;;;;;;;4.73;2.40;;;18.30;99.90;;;;;;5072795;28;20201;-64
2021/07/30 07:15:06;;;;;;;6.67;2.63;;;18.40;99.90;;;;;;5072936;28;20213;-65
2021/07/30 07:17:33;;;;;;;5.97;2.97;;;18.50;99.90;;;;;;5073554;28;20649;-64
2021/07/30 07:19:59;;;;;;;5.07;2.43;;;18.40;99.90;;;;;;5073156;28;20224;-65
2021/07/30 07:22:26;;;;;;;6.43;2.73;;;18.40;99.90;;;;;;5073120;28;20204;-65
2021/07/30 07:24:54;;;;;;;5.63;2.47;;;18.50;99.90;;;;;;5072963;28;20209;-69
2021/07/30 07:27:20;;;;;;;6.03;2.60;;;18.70;99.90;;;;;;5073190;28;20201;-65
2021/07/30 07:29:47;;;;;;;5.53;3.00;;;18.80;99.90;;;;;;5073202;28;20240;-63
2021/07/30 07:32:14;;;;;;;5.57;2.33;;;18.80;99.90;;;;;;5072962;28;20212;-65
2021/07/30 07:34:40;;;;;;;7.57;2.50;;;18.80;99.90;;;;;;5072598;28;20209;-63
2021/07/30 07:37:07;;;;;;;3.70;2.27;;;18.90;99.90;;;;;;5072710;28;20731;-65
2021/07/30 07:39:33;;;;;;;5.73;2.90;;;19.00;99.90;;;;;;5073293;28;20342;-64
2021/07/30 07:42:02;;;;;;;5.83;2.60;;;19.20;99.90;;;;;;5072835;28;20209;-64
2021/07/30 07:44:28;;;;;;;5.30;2.63;;;19.40;99.90;;;;;;5072650;28;20204;-63
2021/07/30 07:46:57;;;;;;;4.77;2.10;;;19.70;99.90;;;;;;5072743;28;20209;-64
2021/07/30 07:49:24;;;;;;;5.80;2.33;;;19.80;99.90;;;;;;5072448;28;20275;-64
2021/07/30 07:51:50;;;;;;;7.07;2.20;;;19.90;99.90;;;;;;5072911;28;20631;-65
2021/07/30 07:54:17;;;;;;;4.27;2.30;;;19.90;99.90;;;;;;5072459;28;20204;-64
2021/07/30 07:56:44;;;;;;;5.17;2.20;;;20.00;99.90;;;;;;5072359;28;20205;-65
2021/07/30 07:59:12;;;;;;;4.03;2.20;;;20.10;99.90;;;;;;5072235;28;20241;-66
2021/07/30 08:01:39;;;;;;;3.93;2.30;;;20.30;99.90;;;;;;5072424;28;20665;-65
2021/07/30 08:04:06;;;;;;;5.43;2.60;;;20.50;99.90;;;;;;5072097;28;20251;-65
2021/07/30 08:06:32;;;;;;;6.60;2.30;;;20.60;99.90;;;;;;5072352;28;20205;-66
2021/07/30 08:08:59;;;;;;;7.10;2.30;;;20.70;99.90;;;;;;5072337;28;20651;-65
2021/07/30 08:11:26;;;;;;;6.73;2.23;;;20.60;99.90;;;;;;5072333;28;20292;-64
2021/07/30 08:13:53;;;;;;;3.87;2.17;;;20.80;99.90;;;;;;5072075;28;20212;-65
2021/07/30 08:16:26;;;;;;;3.57;2.07;;;20.80;99.90;;;;;;5071920;28;20258;-65
2021/07/30 08:18:53;;;;;;;5.47;2.40;;;21.00;99.90;;;;;;5072122;28;20251;-65
2021/07/30 08:21:19;;;;;;;3.90;2.53;;;21.10;99.90;;;;;;5072063;28;20201;-65
2021/07/30 08:23:46;;;;;;;6.60;2.47;;;21.30;99.90;;;;;;5072088;28;20629;-64
2021/07/30 08:26:13;;;;;;;6.47;2.50;;;21.40;99.90;;;;;;5071730;28;20205;-64
2021/07/30 08:28:39;;;;;;;5.43;2.47;;;21.40;99.90;;;;;;5071142;28;20271;-63
2021/07/30 08:31:06;;;;;;;3.60;2.13;;;21.20;99.90;;;;;;5071665;28;20201;-64
2021/07/30 08:33:35;;;;;;;7.30;2.60;;;21.20;99.90;;;;;;5071592;28;20600;-65
2021/07/30 08:36:02;;;;;;;4.80;2.20;;;21.30;99.90;;;;;;5071708;28;20208;-64
2021/07/30 08:38:29;;;;;;;4.43;2.23;;;21.40;99.90;;;;;;5071943;28;20259;-64
2021/07/30 08:40:56;;;;;;;5.00;2.20;;;21.50;99.90;;;;;;5071795;28;20232;-64
2021/07/30 08:43:22;;;;;;;3.67;2.20;;;21.50;99.90;;;;;;5072099;28;20205;-65
2021/07/30 08:45:50;;;;;;;6.30;2.10;;;21.60;99.90;;;;;;5071324;28;20205;-64
2021/07/30 08:48:17;;;;;;;4.60;2.17;;;21.70;99.90;;;;;;5071749;28;20205;-65
2021/07/30 08:50:46;;;;;;;4.80;2.27;;;21.70;99.90;;;;;;5071738;28;20209;-65
2021/07/30 08:53:21;;;;;;;5.57;2.03;;;21.80;99.90;;;;;;5071724;28;20205;-67
2021/07/30 08:55:47;;;;;;;3.80;2.40;;;21.80;99.90;;;;;;5071444;28;20205;-66
2021/07/30 08:58:14;;;;;;;7.40;2.53;;;22.10;99.90;;;;;;5071199;28;20634;-63
2021/07/30 09:00:41;;;;;;;4.07;2.33;;;22.20;99.90;;;;;;5071501;28;20225;-64
2021/07/30 09:03:07;;;;;;;3.70;2.10;;;22.30;99.90;;;;;;5071952;28;20250;-63
2021/07/30 09:05:35;;;;;;;2.93;1.83;;;22.30;99.90;;;;;;5071040;28;20258;-64
2021/07/30 09:08:04;;;;;;;3.47;1.90;;;22.40;99.90;;;;;;5071431;28;20673;-64
2021/07/30 09:10:34;;;;;;;5.33;2.00;;;22.50;99.90;;;;;;5071459;28;20263;-64
2021/07/30 09:13:20;;;;;;;5.60;2.37;;;22.70;99.90;;;;;;5071643;28;20726;-63
2021/07/30 09:15:49;;;;;;;3.80;2.00;;;22.60;99.90;;;;;;5071163;28;20263;-63
2021/07/30 09:18:27;;;;;;;8.17;2.30;;;22.60;99.90;;;;;;5071305;28;20633;-63
2021/07/30 09:20:54;;;;;;;3.53;1.97;;;22.50;99.90;;;;;;5071644;28;20228;-64
2021/07/30 09:23:27;;;;;;;5.00;2.10;;;22.70;99.90;;;;;;5071372;28;20266;-65
2021/07/30 09:25:53;;;;;;;3.80;2.10;;;22.90;99.90;;;;;;5071469;28;20209;-65
2021/07/30 09:28:20;;;;;;;5.57;2.10;;;22.90;99.90;;;;;;5071319;28;20209;-64
2021/07/30 09:30:59;;;;;;;4.50;2.23;;;23.00;99.90;;;;;;5071273;28;20299;-64
2021/07/30 09:33:28;;;;;;;5.37;2.17;;;22.90;99.90;;;;;;5071170;28;20365;-65
2021/07/30 09:35:59;;;;;;;4.23;2.13;;;22.90;99.90;;;;;;5074620;28;20204;-65
2021/07/30 09:38:27;;;;;;;3.47;1.90;;;22.90;99.90;;;;;;5075348;28;20212;-65
2021/07/30 09:41:21;;;;;;;6.07;1.93;;;23.20;99.90;;;;;;5075323;28;20228;-66
2021/07/30 09:43:47;;;;;;;4.07;2.27;;;23.40;99.90;;;;;;5038860;28;20213;-65
2021/07/30 09:46:15;;;;;;;6.17;2.47;;;23.50;99.90;;;;;;5074863;28;20254;-65
2021/07/30 09:48:50;;;;;;;6.17;2.20;;;23.50;99.90;;;;;;5075164;28;20225;-64
2021/07/30 09:51:17;;;;;;;4.80;2.10;;;23.50;99.90;;;;;;5075039;28;20209;-64
2021/07/30 09:53:46;;;;;;;6.10;2.07;;;23.80;99.90;;;;;;5075044;28;20634;-65
2021/07/30 09:56:14;;;;;;;3.33;1.80;;;24.00;99.90;;;;;;5074829;28;20636;-66
2021/07/30 09:58:42;;;;;;;8.43;2.57;;;24.00;99.90;;;;;;5074764;28;20863;-65
2021/07/30 10:01:13;;;;;;;7.27;2.43;;;23.70;99.90;;;;;;5074987;28;20768;-65
2021/07/30 10:03:43;;;;;;;6.00;2.60;;;23.70;99.90;;;;;;5074984;28;20200;-65
2021/07/30 10:06:12;;;;;;;7.30;2.50;;;23.60;99.90;;;;;;5074691;28;20217;-63
2021/07/30 10:08:40;;;;;;;6.20;2.13;;;23.60;99.90;;;;;;5074630;28;20278;-63
2021/07/30 10:11:08;;;;;;;5.20;2.83;;;23.60;99.90;;;;;;5074433;28;20625;-64
2021/07/30 10:13:46;;;;;;;4.23;2.70;;;23.70;99.90;;;;;;5074251;28;20720;-63
2021/07/30 10:16:15;;;;;;;6.70;2.47;;;23.70;99.90;;;;;;5074947;28;20209;-65
2021/07/30 10:18:43;;;;;;;7.67;2.60;;;23.70;99.90;;;;;;5074827;28;20293;-65
2021/07/30 10:21:14;;;;;;;5.03;2.60;;;23.70;99.90;;;;;;5074639;28;20217;-66
2021/07/30 10:23:44;;;;;;;5.53;2.83;;;23.60;99.90;;;;;;5074235;28;20555;-65
2021/07/30 10:26:13;;;;;;;6.33;2.93;;;23.60;99.90;;;;;;5075202;28;20254;-63
2021/07/30 10:28:40;;;;;;;4.80;2.60;;;23.50;99.90;;;;;;5074596;28;20279;-64
2021/07/30 10:31:10;;;;;;;7.63;2.80;;;23.60;99.90;;;;;;5074424;28;20270;-63
2021/07/30 10:33:48;;;;;;;17.17;3.30;;;23.80;99.90;;;;;;5074343;28;20197;-62
2021/07/30 10:36:33;;;;;;;6.53;3.33;;;23.80;99.90;;;;;;5073707;28;21000;-63
2021/07/30 10:39:07;;;;;;;5.60;2.60;;;23.80;99.90;;;;;;5074248;28;20233;-63
2021/07/30 10:41:35;;;;;;;4.53;2.83;;;24.00;99.90;;;;;;5073856;28;20721;-61
2021/07/30 10:44:19;;;;;;;7.30;3.30;;;24.40;99.90;;;;;;5073915;28;20208;-64
2021/07/30 10:47:21;;;;;;;5.20;2.80;;;24.30;99.90;;;;;;5072354;28;20212;-65
2021/07/30 10:49:48;;;;;;;4.67;2.80;;;24.00;99.90;;;;;;5074013;28;20228;-65
2021/07/30 10:52:27;;;;;;;7.53;2.60;;;24.00;99.90;;;;;;5073829;28;20674;-63
2021/07/30 10:54:53;;;;;;;5.33;2.60;;;23.80;99.90;;;;;;5073449;28;20773;-64
2021/07/30 10:57:50;;;;;;;6.00;3.03;;;23.90;99.90;;;;;;5073795;28;20209;-63
2021/07/30 11:00:17;;;;;;;6.93;2.73;;;23.90;99.90;;;;;;5072931;28;20225;-63
2021/07/30 11:03:05;;;;;;;5.60;2.40;;;23.90;99.90;;;;;;5073730;28;20204;-64
2021/07/30 11:05:33;;;;;;;5.37;2.83;;;24.10;99.90;;;;;;5072926;28;20262;-64
2021/07/30 11:08:01;;;;;;;5.63;2.70;;;24.10;99.90;;;;;;5073406;28;20212;-65
2021/07/30 11:10:28;;;;;;;3.57;2.67;;;24.00;99.90;;;;;;5073615;28;20294;-65
2021/07/30 11:12:56;;;;;;;5.77;3.20;;;24.00;99.90;;;;;;5073464;28;20270;-64
2021/07/30 11:15:31;;;;;;;4.37;2.83;;;24.20;99.90;;;;;;5072346;28;20674;-65
2021/07/30 11:18:00;;;;;;;6.77;2.80;;;24.50;99.90;;;;;;5073023;28;20234;-64
2021/07/30 11:20:35;;;;;;;3.87;2.50;;;24.50;99.90;;;;;;5072376;28;20232;-63
2021/07/30 11:23:06;;;;;;;9.10;3.00;;;24.40;99.90;;;;;;5073100;28;20587;-63
2021/07/30 11:25:32;;;;;;;3.87;2.63;;;24.20;99.90;;;;;;5072599;28;20201;-64
2021/07/30 11:28:01;;;;;;;3.40;2.47;;;24.20;99.90;;;;;;5072927;28;20205;-64
2021/07/30 11:30:31;;;;;;;4.53;2.70;;;24.30;99.90;;;;;;5072735;28;20303;-64
2021/07/30 11:32:59;;;;;;;4.30;2.50;;;24.40;99.90;;;;;;5073084;28;20209;-64
2021/07/30 11:35:30;;;;;;;6.33;2.93;;;24.40;99.90;;;;;;5072470;28;20247;-63
2021/07/30 11:38:01;;;;;;;3.87;2.60;;;24.00;99.90;;;;;;5073057;28;20266;-65
2021/07/30 11:40:28;;;;;;;3.97;2.60;;;24.10;99.90;;;;;;5072425;28;20225;-65
2021/07/30 11:43:07;;;;;;;4.67;2.50;;;24.10;99.90;;;;;;5072624;28;20212;-64
2021/07/30 11:45:35;;;;;;;5.07;2.80;;;24.20;99.90;;;;;;5072491;28;20205;-65
2021/07/30 11:48:10;;;;;;;5.40;2.47;;;24.20;99.90;;;;;;5072548;28;20254;-65
2021/07/30 11:50:37;;;;;;;4.83;3.03;;;24.10;99.90;;;;;;5072587;28;20205;-64
2021/07/30 11:53:05;;;;;;;4.97;2.73;;;24.00;99.90;;;;;;5072231;28;20665;-64
2021/07/30 11:55:32;;;;;;;11.10;2.70;;;24.00;99.90;;;;;;5071891;28;20250;-65
2021/07/30 11:58:11;;;;;;;5.00;2.70;;;24.10;99.90;;;;;;5071814;28;20696;-65
2021/07/30 12:00:38;;;;;;;5.57;2.63;;;24.40;99.90;;;;;;5072513;28;20316;-64
2021/07/30 12:03:17;;;;;;;4.83;2.93;;;24.40;99.90;;;;;;5072388;28;20235;-63
2021/07/30 12:05:44;;;;;;;8.37;2.80;;;24.20;99.90;;;;;;5071490;28;20287;-65
2021/07/30 12:08:11;;;;;;;6.63;2.87;;;24.30;99.90;;;;;;5072303;28;20212;-65
2021/07/30 12:10:38;;;;;;;3.90;2.60;;;24.20;99.90;;;;;;5072120;28;20817;-65
2021/07/30 12:13:06;;;;;;;6.10;2.80;;;24.10;99.90;;;;;;5072247;28;20205;-64
2021/07/30 12:15:37;;;;;;;4.20;2.80;;;23.90;99.90;;;;;;5071633;28;20213;-64
2021/07/30 12:18:04;;;;;;;4.17;2.40;;;23.90;99.90;;;;;;5072233;28;20250;-63
2021/07/30 12:20:31;;;;;;;5.80;2.80;;;24.00;99.90;;;;;;5071471;28;20236;-63
2021/07/30 12:23:02;;;;;;;5.10;2.80;;;24.10;99.90;;;;;;5072208;28;20715;-64
2021/07/30 12:25:37;;;;;;;4.10;2.83;;;24.00;99.90;;;;;;5071440;28;20548;-64
2021/07/30 12:28:06;;;;;;;5.90;3.10;;;24.00;99.90;;;;;;5074410;23;20309;-64
2021/07/30 12:30:34;;;;;;;6.30;2.90;;;24.00;99.90;;;;;;5031692;28;20874;-64
2021/07/30 12:33:01;;;;;;;4.30;2.50;;;24.00;99.90;;;;;;5032146;28;20287;-65
2021/07/30 12:35:34;;;;;;;4.57;2.83;;;24.30;99.90;;;;;;5031568;28;20252;-64
2021/07/30 12:38:05;;;;;;;6.37;2.70;;;24.30;99.90;;;;;;5032133;28;20202;-64
2021/07/30 12:40:31;;;;;;;3.40;2.33;;;24.40;99.90;;;;;;5031743;28;20273;-64
2021/07/30 12:43:14;;;;;;;6.50;2.70;;;24.60;99.90;;;;;;5031708;28;20634;-64
2021/07/30 12:45:47;;;;;;;7.40;3.00;;;24.90;99.90;;;;;;5029266;28;20202;-65
2021/07/30 12:48:18;;;;;;;4.67;2.60;;;25.30;99.90;;;;;;5031619;28;20214;-65
2021/07/30 12:50:45;;;;;;;5.30;3.10;;;25.50;99.90;;;;;;5031442;28;20206;-65
2021/07/30 12:53:17;;;;;;;8.90;2.50;;;25.60;99.90;;;;;;5031310;28;20206;-65
2021/07/30 12:56:02;;;;;;;4.33;2.67;;;25.50;99.90;;;;;;5030636;28;20206;-66